createdAt,value
2023-03-23T16:01:43.954Z,2.30
2023-03-23T16:05:46.247Z,2.28
2023-03-23T16:09:48.264Z,3.75
2023-03-23T16:13:50.492Z,2.17
2023-03-23T16:17:52.342Z,2.33
2023-03-23T16:21:54.212Z,2.30
2023-03-23T16:25:56.007Z,2.20
2023-03-23T16:30:04.287Z,3.10
2023-03-23T16:34:07.056Z,3.20
2023-03-23T16:38:13.686Z,3.03
2023-03-23T16:42:15.513Z,2.05
2023-03-23T16:46:17.393Z,2.10
2023-03-23T16:50:19.405Z,2.42
2023-03-23T16:54:21.440Z,2.97
2023-03-23T16:58:23.366Z,4.10
2023-03-23T17:02:25.400Z,4.75
2023-03-23T17:06:27.303Z,4.82
2023-03-23T17:10:29.966Z,4.70
2023-03-23T17:14:32.230Z,3.63
2023-03-23T17:18:34.093Z,2.67
2023-03-23T17:22:37.072Z,6.43
2023-03-23T17:26:38.939Z,5.10
2023-03-23T17:30:42.584Z,5.90
2023-03-23T17:34:44.644Z,7.82
2023-03-23T17:38:46.587Z,9.63
2023-03-23T17:42:48.380Z,8.23
2023-03-23T17:46:50.714Z,4.05
2023-03-23T17:50:57.547Z,3.85
2023-03-23T17:54:59.462Z,3.25
2023-03-23T17:59:01.357Z,3.28
2023-03-23T18:03:03.322Z,3.50
2023-03-23T18:07:06.089Z,3.10
2023-03-23T18:11:08.788Z,3.38
2023-03-23T18:15:11.736Z,3.20
2023-03-23T18:19:13.643Z,3.75
2023-03-23T18:23:15.588Z,3.83
2023-03-23T18:27:17.487Z,4.28
2023-03-23T18:31:20.868Z,4.20
2023-03-23T18:35:22.933Z,6.10
2023-03-23T18:39:24.816Z,6.68
2023-03-23T18:43:27.252Z,5.70
2023-03-23T18:47:29.130Z,6.75
2023-03-23T18:51:31.058Z,7.15
2023-03-23T18:55:33.116Z,7.88
2023-03-23T18:59:35.888Z,6.65
2023-03-23T19:03:40.304Z,5.55
2023-03-23T19:07:43.550Z,5.00
2023-03-23T19:11:47.188Z,4.72
2023-03-23T19:15:49.010Z,4.93
2023-03-23T19:19:51.014Z,5.10
2023-03-23T19:23:53.600Z,6.07
2023-03-23T19:32:00.110Z,5.45
2023-03-23T19:36:10.205Z,5.72
2023-03-23T19:40:35.460Z,6.25
2023-03-23T19:44:36.752Z,5.78
2023-03-23T19:48:39.731Z,7.30
2023-03-23T19:52:42.201Z,7.03
2023-03-23T19:56:44.263Z,5.88
2023-03-23T20:00:46.231Z,5.45
2023-03-23T20:04:48.143Z,6.82
2023-03-23T20:08:50.023Z,8.63
2023-03-23T20:12:51.985Z,10.20
2023-03-23T20:16:53.944Z,10.13
2023-03-23T20:21:22.845Z,9.65
2023-03-23T20:25:25.909Z,9.52
2023-03-23T20:29:31.671Z,8.77
2023-03-23T20:33:35.490Z,8.27
2023-03-23T20:37:38.395Z,7.05
2023-03-23T20:41:41.270Z,6.90
2023-03-23T20:45:43.361Z,6.90
2023-03-23T20:49:52.948Z,5.55
2023-03-23T20:53:55.654Z,5.25
2023-03-23T20:57:57.469Z,5.85
2023-03-23T21:01:59.353Z,6.63
2023-03-23T21:06:03.258Z,6.25
2023-03-23T21:10:05.309Z,5.63
2023-03-23T21:14:08.201Z,6.22
2023-03-23T21:18:11.272Z,6.18
2023-03-23T21:22:14.743Z,6.10
2023-03-23T21:26:17.206Z,6.57
2023-03-23T21:30:20.656Z,7.00
2023-03-23T21:34:22.737Z,4.70
2023-03-23T21:38:26.531Z,6.53
2023-03-23T21:42:31.164Z,6.72
2023-03-23T21:46:33.809Z,8.00
2023-03-23T21:50:37.577Z,7.03
2023-03-23T21:54:41.187Z,7.22
2023-03-23T21:58:43.272Z,6.95
2023-03-23T22:02:45.167Z,7.72
2023-03-23T22:06:47.941Z,8.90
2023-03-23T22:11:01.239Z,10.57
2023-03-23T22:15:08.089Z,13.07
2023-03-23T22:19:09.941Z,12.10
2023-03-23T22:23:11.823Z,11.35
2023-03-23T22:27:13.742Z,10.43
2023-03-23T22:31:19.079Z,8.50
2023-03-23T22:35:21.155Z,7.65
2023-03-23T22:39:23.020Z,8.35
2023-03-23T22:43:25.114Z,7.32
2023-03-23T22:47:26.942Z,7.20
2023-03-23T22:51:29.042Z,11.40
2023-03-23T22:55:31.754Z,12.93
2023-03-23T22:59:33.663Z,10.20
2023-03-23T23:03:36.666Z,10.10
2023-03-23T23:07:38.726Z,9.65
2023-03-23T23:11:40.633Z,7.22
2023-03-23T23:15:45.663Z,6.90
2023-03-23T23:19:47.607Z,6.47
2023-03-23T23:23:51.641Z,6.10
2023-03-23T23:27:53.597Z,5.63
2023-03-23T23:31:55.841Z,5.72
2023-03-23T23:35:57.742Z,5.57
2023-03-23T23:39:59.662Z,5.70
2023-03-23T23:44:01.947Z,5.82
2023-03-23T23:48:05.400Z,5.20
2023-03-23T23:52:08.401Z,5.68
2023-03-23T23:56:12.076Z,5.68
